Royalton, Illinois
Current Conditions -  °F | °C
As of 9:52 PM on Wednesday 22 Oct 2014 (Local Time) from KMDH Reporting Station
Clear Clear  
Wind Chill: 42°   Ceiling: Unl
Heat Index: 42°   Visibility: 10mi
Dew Point: 39°   Wind: 0mph
Humidity: 89%   Direction: NA
Pressure: 30.25"   Gusts: NA
Location:  37.88°N, 89.11°W
Report Text: KMDH 230252Z 00000KT 10SM CLR 06/04 A3025 RMK AO2 SLP243 T00560039 53008
Loading
Personal Weather Stations






























Interactive Weather Map
Tropical Storm Tracking
New forecast layout! Learn more

10-Day Weather Forecast

Advertisements
Track Severe Weather on mobile